Platzwetter Flugplatz Wels

Flugwetter Linz LOWL

[Quelle: ADDS]
METAR
LOWL 191350Z 31010KT 9999 FEW035 SCT085 BKN140 24/15 Q1019 NOSIG =
LOWL 191115Z 1912/2012 26004KT 9999 SCT040 BKN100 TX25/1915Z TN17/2003Z TEMPO 1915/1924 28008KT -SHRA SCT025 BKN060 PROB40 TEMPO 1919/1924 SHRA SCT012 BKN018 BECMG 1923/2001 08004KT 8000 BKN015 PROB40 2001/2008 3000 BR BKN008 BECMG 2007/2010 10012KT 9999 FEW020 SCT060
TAF
LOWL 191115Z 1912/2012 26004KT 9999 SCT040 BKN100 TX25/1915Z TN17/2003Z TEMPO 1915/1924 28008KT -SHRA SCT025 BKN060 PROB40 TEMPO 1919/1924 SHRA SCT012 BKN018 BECMG 1923/2001 08004KT 8000 BKN015 PROB40 2001/2008 3000 BR BKN008 BECMG 2007/2010 10012KT 9999 FEW020 SCT060 =

Flugwetter Salzburg LOWS

[Quelle: ADDS]
METAR
LOWS 191350Z 14005KT 9999 FEW050 BKN120 22/17 Q1019 NOSIG =
LOWS 191115Z 1912/2012 16006KT 9999 FEW040 BKN070 TX22/1915Z TN16/2004Z TEMPO 1912/1920 32008KT -SHRA SCT035 BKN050 PROB30 TEMPO 1915/1920 SHRA SCT025TCU BKN045 PROB30 TEMPO 2002/2008 VRB02KT 4000 BR FEW005 BKN012 BECMG 2008/2010 32006KT TEMPO 2010/2012 34010KT SHRA SCT025 BKN045
TAF
LOWS 191115Z 1912/2012 16006KT 9999 FEW040 BKN070 TX22/1915Z TN16/2004Z TEMPO 1912/1920 32008KT -SHRA SCT035 BKN050 PROB30 TEMPO 1915/1920 SHRA SCT025TCU BKN045 PROB30 TEMPO 2002/2008 VRB02KT 4000 BR FEW005 BKN012 BECMG 2008/2010 32006KT TEMPO 2010/2012 34010KT SHRA SCT025 BKN045 =

Wind - Verlauf

Windrichtung - Verlauf

Temperatur - Verlauf

Relative Luftfeuchtigkeit - Verlauf

Luftdruck - Verlauf


Pilot für einen Tag - Erfülle Dir den Traum vom Fliegen!

Werde einen Tag lang Pilot bei und mit dem Fliegerclub Weiße Möwe in Wels!

Stadt - Wels

Ausflugsziele & Sehenswürdigkeiten
in Wels und Umgebung

RUNDFLÜGE MIT DER ANTONOV AN-2 (Tiroler Adler)

Jetzt Rundflug-Tickets mit der legendären ANTONOV in Wels sichern!
Cookies erleichtern die Bereitstellung unserer Dienste. Mit der Nutzung unserer Dienste erklären Sie sich damit einverstanden, dass wir Cookies verwenden.
Weitere Informationen Ok